Time;durP1;ratioP1;P1;durP2;ratioP2;P2;SDS_P1;SDS_P2;PMS_P1;PMS_P2;Temp;Humidity;BMP_temperature;BMP_pressure;BME280_temperature;BME280_humidity;BME280_pressure;Samples;Min_cycle;Max_cycle;Signal;HPM_P1;HPM_P2
2023/05/21 00:00:17;;;;;;;;;18.33;17.00;;;;;19.18;48.41;101358.94;6190827;22;46028;-61
2023/05/21 00:02:43;;;;;;;;;11.67;11.67;;;;;19.24;49.43;101355.78;6217884;22;45468;-61
2023/05/21 00:05:13;;;;;;;;;17.33;15.00;;;;;19.24;48.96;101354.91;6216881;22;46362;-61
2023/05/21 00:07:38;;;;;;;;;20.67;15.00;;;;;19.24;48.71;101353.09;6217247;22;45356;-61
2023/05/21 00:10:05;;;;;;;;;13.00;13.00;;;;;19.25;48.68;101354.78;6190843;22;45301;-61
2023/05/21 00:12:31;;;;;;;;;16.00;16.00;;;;;19.26;49.71;101351.09;6217228;22;45230;-61
2023/05/21 00:14:56;;;;;;;;;13.67;12.00;;;;;19.25;48.84;101346.69;6217375;22;46161;-61
2023/05/21 00:17:22;;;;;;;;;17.00;15.67;;;;;19.25;48.82;101348.53;6190506;22;45400;-63
2023/05/21 00:19:48;;;;;;;;;14.67;12.67;;;;;19.23;48.82;101348.66;6191180;22;45321;-62
2023/05/21 00:22:14;;;;;;;;;16.00;14.33;;;;;19.21;49.18;101345.22;6217287;22;45603;-61
2023/05/21 00:24:40;;;;;;;;;17.67;16.33;;;;;19.09;49.97;101349.72;6190640;22;46295;-61
2023/05/21 00:27:05;;;;;;;;;21.33;18.33;;;;;19.09;49.50;101347.03;6217348;22;45210;-61
2023/05/21 00:29:31;;;;;;;;;18.00;18.00;;;;;19.04;49.42;101343.00;6165159;22;45652;-61
2023/05/21 00:31:56;;;;;;;;;18.33;17.00;;;;;19.01;49.54;101344.94;6189554;22;57911;-61
2023/05/21 00:34:21;;;;;;;;;20.67;18.00;;;;;18.97;49.73;101338.06;6217447;22;45700;-61
2023/05/21 00:36:47;;;;;;;;;17.67;16.33;;;;;18.94;49.62;101335.63;6216930;22;45332;-65
2023/05/21 00:39:12;;;;;;;;;16.33;15.33;;;;;18.91;49.83;101333.13;6189934;22;64956;-61
2023/05/21 00:41:39;;;;;;;;;16.33;16.33;;;;;18.87;50.04;101328.94;6217518;22;45404;-61
2023/05/21 00:44:05;;;;;;;;;16.67;16.00;;;;;18.82;49.73;101325.72;6190580;22;45373;-61
2023/05/21 00:46:31;;;;;;;;;19.00;18.00;;;;;18.81;50.29;101321.31;6190137;22;45302;-61
2023/05/21 00:48:57;;;;;;;;;17.67;15.67;;;;;18.76;49.93;101318.09;6217494;22;45466;-61
2023/05/21 00:51:22;;;;;;;;;14.33;13.67;;;;;18.73;50.20;101323.75;6189982;22;45242;-61
2023/05/21 00:53:51;;;;;;;;;21.33;19.33;;;;;18.73;50.99;101318.34;6190430;22;46771;-61
2023/05/21 00:56:18;;;;;;;;;19.00;16.00;;;;;18.76;49.82;101315.41;6217130;22;45216;-61
2023/05/21 00:58:44;;;;;;;;;15.00;15.00;;;;;18.68;50.25;101319.56;6217150;22;45389;-61
2023/05/21 01:01:12;;;;;;;;;21.67;19.00;;;;;18.85;50.30;101318.28;6215359;22;52076;-61
2023/05/21 01:03:38;;;;;;;;;17.67;17.33;;;;;18.67;51.10;101315.16;6217010;22;45994;-61
2023/05/21 01:06:04;;;;;;;;;21.00;19.33;;;;;18.62;52.15;101311.09;6190242;22;45445;-61
2023/05/21 01:08:30;;;;;;;;;20.33;20.33;;;;;18.59;50.95;101309.50;6217186;22;45525;-61
2023/05/21 01:10:56;;;;;;;;;20.00;17.67;;;;;18.56;50.91;101304.31;6190478;22;45365;-61
2023/05/21 01:13:23;;;;;;;;;22.00;20.67;;;;;18.57;51.30;101307.91;6190030;22;45566;-61
2023/05/21 01:15:49;;;;;;;;;23.33;19.67;;;;;18.54;51.23;101303.59;6190011;22;45300;-61
2023/05/21 01:18:15;;;;;;;;;21.33;18.67;;;;;18.52;52.02;101311.81;6216013;22;45238;-61
2023/05/21 01:20:41;;;;;;;;;26.33;20.33;;;;;18.49;52.32;101313.88;6189684;22;58369;-61
2023/05/21 01:23:07;;;;;;;;;20.33;18.33;;;;;18.46;51.71;101314.97;6190258;22;46186;-60
2023/05/21 01:25:33;;;;;;;;;20.33;20.33;;;;;18.44;51.46;101306.13;6216659;22;54888;-61
2023/05/21 01:27:58;;;;;;;;;20.00;19.33;;;;;18.41;52.14;101305.47;6217207;22;45302;-61
2023/05/21 01:30:24;;;;;;;;;24.67;20.00;;;;;18.39;51.47;101307.44;6216221;22;65297;-61
2023/05/21 01:33:24;;;;;;;;;24.00;21.33;;;;;18.38;51.76;101309.25;6190730;22;46180;-61
2023/05/21 01:35:54;;;;;;;;;23.00;21.00;;;;;18.38;51.98;101309.25;6189493;22;45221;-61
2023/05/21 01:38:31;;;;;;;;;19.67;19.33;;;;;18.37;52.08;101310.25;6189924;22;45355;-61
2023/05/21 01:41:17;;;;;;;;;22.67;21.00;;;;;18.33;52.05;101308.78;6190526;22;45421;-61
2023/05/21 01:43:44;;;;;;;;;21.67;20.33;;;;;18.32;52.19;101309.75;6189807;22;45353;-61
2023/05/21 01:46:17;;;;;;;;;22.67;21.00;;;;;18.30;52.20;101315.25;6190397;22;45242;-61
2023/05/21 01:48:43;;;;;;;;;20.00;20.00;;;;;18.31;52.35;101308.88;6217285;22;45343;-61
2023/05/21 01:51:08;;;;;;;;;24.33;23.00;;;;;18.32;52.25;101309.75;6215728;22;64795;-61
2023/05/21 01:53:33;;;;;;;;;21.33;18.67;;;;;18.33;51.99;101312.31;6164643;22;52168;-61
2023/05/21 01:55:59;;;;;;;;;22.00;20.67;;;;;18.34;52.66;101318.56;6215511;22;71069;-61
2023/05/21 01:58:25;;;;;;;;;27.00;22.00;;;;;18.34;52.69;101310.47;6216796;22;45332;-61
2023/05/21 02:00:50;;;;;;;;;24.67;21.00;;;;;18.33;52.21;101316.84;6217133;22;45222;-63
2023/05/21 02:03:16;;;;;;;;;25.33;21.33;;;;;18.33;52.23;101312.31;6190106;22;45346;-61
2023/05/21 02:05:42;;;;;;;;;24.00;23.33;;;;;18.34;52.35;101315.84;6189347;22;46092;-61
2023/05/21 02:08:07;;;;;;;;;25.00;21.00;;;;;18.34;52.72;101318.56;6189930;22;45300;-61
2023/05/21 02:10:34;;;;;;;;;22.33;20.67;;;;;18.37;52.88;101312.06;6215840;22;68037;-61
2023/05/21 02:12:59;;;;;;;;;25.67;25.67;;;;;18.39;53.57;101312.84;6190080;22;46216;-61
2023/05/21 02:15:24;;;;;;;;;24.00;23.33;;;;;18.38;52.56;101311.09;6189957;22;45370;-61
2023/05/21 02:17:50;;;;;;;;;25.33;22.67;;;;;18.37;52.25;101298.63;6217161;22;45292;-61
2023/05/21 02:20:15;;;;;;;;;23.67;23.33;;;;;18.39;52.61;101311.00;6189268;22;45468;-61
2023/05/21 02:22:43;;;;;;;;;24.00;24.00;;;;;18.40;53.26;101310.03;6216880;22;45405;-61
2023/05/21 02:25:09;;;;;;;;;26.33;25.33;;;;;18.40;53.07;101307.31;6216803;22;45400;-61
2023/05/21 02:27:36;;;;;;;;;22.67;20.00;;;;;18.41;52.69;101309.06;6215960;22;45486;-61
2023/05/21 02:30:06;;;;;;;;;30.00;23.67;;;;;18.41;52.59;101317.13;6190171;22;45248;-61
2023/05/21 02:32:32;;;;;;;;;27.00;21.33;;;;;18.44;52.83;101310.66;6215733;22;45584;-61
2023/05/21 02:34:58;;;;;;;;;24.33;22.00;;;;;18.41;52.73;101311.75;6189294;22;45446;-61
2023/05/21 02:37:26;;;;;;;;;28.33;27.00;;;;;18.42;52.92;101315.28;6216836;22;45399;-61
2023/05/21 02:39:52;;;;;;;;;28.00;23.67;;;;;18.57;52.30;101322.22;6217160;22;45165;-62
2023/05/21 02:42:17;;;;;;;;;27.00;25.33;;;;;18.42;52.39;101326.06;6189448;22;46301;-62
2023/05/21 02:44:42;;;;;;;;;29.00;26.00;;;;;18.39;52.49;101316.38;6188340;22;74126;-61
2023/05/21 02:47:09;;;;;;;;;27.33;25.67;;;;;18.38;53.13;101319.19;6216024;22;63292;-61
2023/05/21 02:49:34;;;;;;;;;26.67;24.00;;;;;18.35;53.18;101313.06;6189923;22;45529;-61
2023/05/21 02:52:00;;;;;;;;;29.00;27.33;;;;;18.33;52.64;101309.63;6216127;22;45965;-61
2023/05/21 02:54:25;;;;;;;;;29.33;26.33;;;;;18.32;53.33;101315.13;6216049;22;45395;-61
2023/05/21 02:56:50;;;;;;;;;27.67;26.00;;;;;18.30;52.82;101309.00;6216637;22;45267;-61
2023/05/21 02:59:16;;;;;;;;;22.67;20.00;;;;;18.27;53.04;101311.94;6189457;22;45458;-61
2023/05/21 03:01:43;;;;;;;;;26.67;25.67;;;;;18.24;53.15;101307.63;6215649;22;64132;-61
2023/05/21 03:04:08;;;;;;;;;27.33;26.00;;;;;18.21;53.49;101315.91;6190226;22;45440;-61
2023/05/21 03:06:34;;;;;;;;;24.33;22.67;;;;;18.15;54.93;101313.69;6163237;22;64832;-61
2023/05/21 03:08:59;;;;;;;;;29.33;29.00;;;;;18.10;54.49;101308.63;6189304;22;45190;-61
2023/05/21 03:11:25;;;;;;;;;30.00;25.50;;;;;18.05;54.76;101305.44;6215052;22;72471;-61
2023/05/21 03:13:50;;;;;;;;;36.00;26.33;;;;;18.01;54.32;101314.72;6189238;22;45293;-61
2023/05/21 03:16:16;;;;;;;;;26.00;26.00;;;;;17.98;55.24;101317.63;6189691;22;45146;-61
2023/05/21 03:18:42;;;;;;;;;28.33;27.33;;;;;17.94;55.72;101314.31;6216715;22;45409;-61
2023/05/21 03:21:07;;;;;;;;;27.67;25.67;;;;;17.93;54.35;101323.34;6215781;22;45948;-61
2023/05/21 03:23:33;;;;;;;;;28.67;28.67;;;;;17.91;54.63;101321.69;6214138;22;59833;-61
2023/05/21 03:25:59;;;;;;;;;32.00;30.67;;;;;17.88;56.05;101327.31;6216434;22;45375;-61
2023/05/21 03:28:25;;;;;;;;;30.67;26.00;;;;;17.87;54.17;101323.75;6215969;22;45340;-61
2023/05/21 03:30:50;;;;;;;;;27.33;27.33;;;;;17.85;54.70;101326.56;6216380;22;46004;-61
2023/05/21 03:33:16;;;;;;;;;32.00;30.33;;;;;17.84;54.79;101319.44;6217875;22;45372;-61
2023/05/21 03:35:41;;;;;;;;;34.33;31.00;;;;;17.83;55.59;101331.19;6217269;22;45583;-61
2023/05/21 03:38:07;;;;;;;;;30.67;27.67;;;;;17.81;54.81;101326.91;6217388;22;45506;-61
2023/05/21 03:40:32;;;;;;;;;30.00;29.33;;;;;17.81;55.05;101337.66;6217849;22;45334;-61
2023/05/21 03:42:57;;;;;;;;;24.33;20.67;;;;;17.80;56.09;101339.47;6217189;22;53993;-61
2023/05/21 03:45:23;;;;;;;;;34.33;27.00;;;;;17.78;55.11;101332.47;6216928;22;65304;-61
2023/05/21 03:47:48;;;;;;;;;31.33;29.67;;;;;17.78;55.42;101327.97;6217899;22;45170;-61
2023/05/21 03:50:13;;;;;;;;;31.33;27.33;;;;;17.76;55.12;101326.38;6216043;22;70518;-61
2023/05/21 03:52:39;;;;;;;;;34.67;29.67;;;;;17.75;55.32;101330.88;6190910;22;45351;-61
2023/05/21 03:55:05;;;;;;;;;28.00;26.33;;;;;17.75;55.10;101330.03;6216746;22;64509;-61
2023/05/21 03:57:30;;;;;;;;;30.33;29.33;;;;;17.75;55.00;101328.19;6217217;22;45558;-61
2023/05/21 03:59:57;;;;;;;;;28.33;25.00;;;;;17.76;55.44;101339.81;6216149;22;72868;-61
2023/05/21 04:02:24;;;;;;;;;30.00;28.67;;;;;17.72;55.28;101341.00;6191443;22;45282;-61
2023/05/21 04:04:50;;;;;;;;;32.67;31.33;;;;;17.75;55.33;101332.72;6190514;22;45363;-61
2023/05/21 04:07:18;;;;;;;;;29.00;29.00;;;;;17.69;55.46;101339.38;6217525;22;45275;-61
2023/05/21 04:09:43;;;;;;;;;27.00;26.00;;;;;17.66;54.97;101340.50;6217335;22;45360;-61
2023/05/21 04:12:08;;;;;;;;;29.00;27.33;;;;;17.63;55.82;101345.22;6163914;22;72382;-61
2023/05/21 04:14:35;;;;;;;;;29.00;29.00;;;;;17.62;56.73;101357.78;6217263;22;48852;-61
2023/05/21 04:17:03;;;;;;;;;33.00;31.00;;;;;17.59;56.20;101358.03;6190677;22;45431;-63
2023/05/21 04:19:28;;;;;;;;;27.33;24.67;;;;;17.52;55.81;101351.34;6217117;22;45296;-61
2023/05/21 04:21:54;;;;;;;;;25.33;24.00;;;;;17.52;55.80;101354.03;6217049;22;45297;-61
2023/05/21 04:24:21;;;;;;;;;33.33;31.67;;;;;17.49;56.70;101356.94;6217594;22;45348;-61
2023/05/21 04:26:46;;;;;;;;;32.33;29.33;;;;;17.55;55.86;101353.84;6217230;22;45342;-61
2023/05/21 04:29:12;;;;;;;;;30.33;29.33;;;;;17.57;56.27;101357.25;6189796;22;47874;-61
2023/05/21 04:31:37;;;;;;;;;30.33;27.33;;;;;17.60;55.85;101362.44;6189610;22;45634;-61
2023/05/21 04:34:03;;;;;;;;;29.00;29.00;;;;;17.59;55.38;101362.56;6217408;22;45329;-61
2023/05/21 04:36:29;;;;;;;;;29.00;27.67;;;;;17.63;55.82;101364.06;6217517;22;45315;-61
2023/05/21 04:38:54;;;;;;;;;36.67;31.67;;;;;17.62;56.18;101370.38;6190483;22;45291;-61
2023/05/21 04:41:20;;;;;;;;;31.33;29.00;;;;;17.61;57.19;101372.22;6217093;22;45341;-61
2023/05/21 04:43:46;;;;;;;;;32.33;28.00;;;;;17.61;56.00;101369.53;6190698;22;45303;-61
2023/05/21 04:46:11;;;;;;;;;31.33;28.33;;;;;17.65;55.79;101364.78;6217437;22;45226;-61
2023/05/21 04:48:36;;;;;;;;;33.00;31.33;;;;;17.66;55.90;101367.38;6215949;22;73536;-61
2023/05/21 04:51:04;;;;;;;;;37.33;32.33;;;;;17.69;55.85;101371.66;6189156;22;70046;-61
2023/05/21 04:53:29;;;;;;;;;36.00;31.00;;;;;17.72;56.04;101359.81;6217063;22;45308;-62
2023/05/21 04:55:58;;;;;;;;;32.00;30.00;;;;;17.73;55.91;101364.25;6216036;22;66838;-61
2023/05/21 04:58:23;;;;;;;;;34.00;28.67;;;;;17.78;55.30;101360.28;6216731;22;45362;-61
2023/05/21 05:00:50;;;;;;;;;30.67;30.67;;;;;17.87;55.06;101369.50;6217088;22;45245;-61
2023/05/21 05:03:16;;;;;;;;;28.67;27.33;;;;;17.95;54.94;101379.72;6216880;22;45351;-61
2023/05/21 05:05:41;;;;;;;;;33.33;29.00;;;;;18.05;54.82;101361.09;6164365;22;45293;-61
2023/05/21 05:08:07;;;;;;;;;28.00;27.00;;;;;18.14;54.73;101363.13;6190115;22;47384;-61
2023/05/21 05:10:32;;;;;;;;;35.67;32.67;;;;;18.18;54.46;101361.91;6190030;22;45281;-61
2023/05/21 05:12:58;;;;;;;;;30.67;30.00;;;;;18.21;54.44;101355.44;6217213;22;45326;-61
2023/05/21 05:15:25;;;;;;;;;28.00;27.00;;;;;18.25;54.47;101351.56;6217105;22;45435;-61
2023/05/21 05:17:50;;;;;;;;;30.33;28.00;;;;;18.32;54.29;101350.97;6217327;22;46293;-61
2023/05/21 05:20:15;;;;;;;;;28.00;25.67;;;;;18.39;53.98;101358.63;6216769;22;45339;-61
2023/05/21 05:22:40;;;;;;;;;28.33;28.00;;;;;18.43;54.09;101354.72;6189390;22;66495;-61
2023/05/21 05:25:06;;;;;;;;;34.00;29.00;;;;;18.45;53.90;101355.47;6216204;22;65094;-61
2023/05/21 05:27:32;;;;;;;;;25.33;25.33;;;;;18.50;53.77;101359.53;6189603;22;46254;-61
2023/05/21 05:29:57;;;;;;;;;29.67;29.00;;;;;18.55;53.72;101367.28;6217200;22;45334;-61
2023/05/21 05:32:23;;;;;;;;;29.00;26.67;;;;;18.62;53.60;101367.69;6215728;22;66299;-61
2023/05/21 05:34:48;;;;;;;;;36.00;30.67;;;;;18.70;53.41;101364.41;6216233;22;59495;-61
2023/05/21 05:37:13;;;;;;;;;29.33;27.00;;;;;18.75;53.25;101364.91;6189449;22;62462;-61
2023/05/21 05:39:39;;;;;;;;;30.33;28.33;;;;;18.80;53.86;101366.28;6190116;22;56129;-61
2023/05/21 05:42:04;;;;;;;;;25.67;25.67;;;;;18.83;52.96;101359.78;6217094;22;49190;-61
2023/05/21 05:44:29;;;;;;;;;35.67;29.67;;;;;18.91;52.83;101364.63;6217402;22;45227;-62
2023/05/21 05:46:55;;;;;;;;;28.00;28.00;;;;;19.00;52.70;101364.78;6216042;22;69258;-61
2023/05/21 05:49:20;;;;;;;;;34.33;31.00;;;;;19.13;52.49;101364.69;6214439;22;71773;-61
2023/05/21 05:51:45;;;;;;;;;27.67;23.67;;;;;19.23;52.40;101363.97;6216939;22;45884;-62
2023/05/21 05:54:11;;;;;;;;;28.67;26.33;;;;;19.33;52.20;101371.25;6216839;22;45289;-62
2023/05/21 05:56:36;;;;;;;;;30.00;28.67;;;;;19.45;52.07;101374.81;6216197;22;62121;-62
2023/05/21 05:59:01;;;;;;;;;29.67;27.33;;;;;19.55;51.43;101372.22;6216116;22;61892;-61
2023/05/21 06:01:27;;;;;;;;;31.00;28.67;;;;;19.55;51.08;101369.53;6188855;22;63064;-62
2023/05/21 06:03:52;;;;;;;;;33.00;26.00;;;;;19.55;51.13;101369.53;6215861;22;66933;-61
2023/05/21 06:06:18;;;;;;;;;26.67;26.67;;;;;19.62;51.18;101372.59;6215752;22;64330;-61
2023/05/21 06:08:43;;;;;;;;;38.00;29.00;;;;;19.71;50.71;101381.81;6190289;22;45323;-61
2023/05/21 06:11:09;;;;;;;;;31.67;27.67;;;;;19.74;50.97;101387.81;6217187;22;45355;-61
2023/05/21 06:13:35;;;;;;;;;30.33;28.00;;;;;19.81;50.63;101382.78;6216965;22;45286;-61
2023/05/21 06:16:01;;;;;;;;;30.00;25.33;;;;;19.88;50.25;101377.78;6216820;22;45363;-61
2023/05/21 06:18:26;;;;;;;;;32.00;29.33;;;;;19.94;50.19;101372.75;6189460;22;67804;-61
2023/05/21 06:20:51;;;;;;;;;22.33;22.33;;;;;20.08;49.75;101366.25;6164052;22;53286;-61
2023/05/21 06:23:17;;;;;;;;;31.67;27.00;;;;;20.13;49.83;101368.56;6188812;22;63355;-61
2023/05/21 06:25:42;;;;;;;;;28.33;28.33;;;;;20.16;49.82;101371.84;6216590;22;45409;-61
2023/05/21 06:28:07;;;;;;;;;30.33;28.33;;;;;20.15;49.19;101367.47;6189819;22;45290;-62
2023/05/21 06:30:33;;;;;;;;;33.67;29.33;;;;;20.16;49.62;101362.91;6215433;22;66585;-62
2023/05/21 06:32:58;;;;;;;;;25.00;25.00;;;;;20.25;49.63;101372.97;6215818;22;66891;-61
2023/05/21 06:35:23;;;;;;;;;31.00;30.00;;;;;20.28;49.15;101363.75;6216265;22;46106;-61
2023/05/21 06:37:49;;;;;;;;;29.00;29.00;;;;;20.38;48.97;101374.66;6188801;22;69902;-61
2023/05/21 06:40:14;;;;;;;;;32.00;26.00;;;;;20.53;49.12;101377.91;6215837;22;62526;-61
2023/05/21 06:42:40;;;;;;;;;27.33;26.67;;;;;20.89;48.87;101375.84;6216608;22;45434;-61
2023/05/21 06:45:06;;;;;;;;;32.00;30.33;;;;;21.50;47.15;101375.09;6216661;22;46070;-61
2023/05/21 06:47:31;;;;;;;;;25.33;25.33;;;;;22.41;46.50;101368.91;6189265;22;45285;-61
2023/05/21 06:49:57;;;;;;;;;28.33;26.67;;;;;23.34;44.82;101368.47;6216681;22;45793;-62
2023/05/21 06:52:23;;;;;;;;;24.67;23.67;;;;;24.38;41.99;101368.28;6216931;22;45265;-61
2023/05/21 06:54:48;;;;;;;;;29.33;26.67;;;;;25.21;39.88;101364.47;6188952;22;65495;-61
2023/05/21 06:57:14;;;;;;;;;28.33;25.33;;;;;25.99;40.00;101367.28;6188983;22;60035;-61
2023/05/21 06:59:40;;;;;;;;;28.00;23.50;;;;;26.55;37.29;101362.16;6189877;22;45267;-62
2023/05/21 07:02:05;;;;;;;;;23.33;23.00;;;;;26.76;37.59;101369.03;6217059;22;45285;-62
2023/05/21 07:04:31;;;;;;;;;24.00;24.00;;;;;27.03;36.64;101359.66;6216136;22;62626;-62
2023/05/21 07:06:56;;;;;;;;;23.67;23.67;;;;;27.60;36.38;101366.03;6217542;22;45331;-62
2023/05/21 07:09:21;;;;;;;;;23.33;22.00;;;;;28.16;35.49;101366.88;6218851;22;47125;-62
2023/05/21 07:11:47;;;;;;;;;27.00;21.33;;;;;28.72;35.79;101365.81;6191494;22;45345;-62
2023/05/21 07:14:12;;;;;;;;;20.33;19.33;;;;;29.16;34.73;101367.81;6217949;22;45248;-62
2023/05/21 07:16:38;;;;;;;;;20.33;20.33;;;;;29.21;33.66;101365.38;6217284;22;54535;-62
2023/05/21 07:19:03;;;;;;;;;21.33;20.00;;;;;29.05;32.88;101362.81;6217579;22;45407;-62
2023/05/21 07:21:29;;;;;;;;;20.67;20.33;;;;;29.29;33.15;101372.69;6216789;22;59160;-62
2023/05/21 07:23:54;;;;;;;;;24.33;23.00;;;;;29.89;29.68;101371.91;6217398;22;46186;-62
2023/05/21 07:26:20;;;;;;;;;23.00;21.33;;;;;30.56;31.68;101375.41;6216401;22;71075;-62
2023/05/21 07:28:45;;;;;;;;;24.33;20.67;;;;;31.10;29.28;101372.13;6190405;22;45443;-62
2023/05/21 07:31:11;;;;;;;;;24.33;23.00;;;;;31.05;29.81;101380.13;6217230;22;56135;-62
2023/05/21 07:33:36;;;;;;;;;22.00;22.00;;;;;31.02;29.56;101380.50;6217617;22;46044;-62
2023/05/21 07:36:02;;;;;;;;;25.33;23.67;;;;;30.92;29.26;101374.50;6217040;22;60110;-62
2023/05/21 07:38:28;;;;;;;;;27.33;22.33;;;;;31.05;29.65;101371.88;6217753;22;45229;-62
2023/05/21 07:40:53;;;;;;;;;23.00;22.33;;;;;31.10;30.10;101374.88;6191267;22;45282;-62
2023/05/21 07:43:19;;;;;;;;;25.67;23.00;;;;;31.53;27.55;101375.81;6190138;22;60216;-62
2023/05/21 07:45:44;;;;;;;;;22.00;20.00;;;;;32.28;27.32;101367.72;6190518;22;58398;-63
2023/05/21 07:48:10;;;;;;;;;24.00;22.67;;;;;33.08;27.04;101362.34;6217191;22;62288;-62
2023/05/21 07:50:36;;;;;;;;;24.00;20.33;;;;;33.99;26.46;101370.00;6217665;22;45558;-63
2023/05/21 07:53:02;;;;;;;;;21.67;21.67;;;;;34.51;24.50;101367.19;6217134;22;45649;-62
2023/05/21 07:55:27;;;;;;;;;21.67;20.00;;;;;35.10;23.86;101379.72;6217101;22;45237;-62
2023/05/21 07:57:52;;;;;;;;;10.33;10.33;;;;;35.47;23.36;101367.88;6190048;22;61829;-62
2023/05/21 08:00:18;;;;;;;;;18.67;18.67;;;;;35.81;22.99;101373.03;6217820;22;45383;-62
2023/05/21 08:02:43;;;;;;;;;15.67;14.33;;;;;36.24;22.44;101375.69;6190855;22;45314;-63
2023/05/21 08:05:09;;;;;;;;;20.33;20.33;;;;;36.99;21.31;101373.50;6189315;22;66465;-63
2023/05/21 08:07:35;;;;;;;;;20.67;18.33;;;;;37.56;21.46;101380.34;6191117;22;45277;-63
2023/05/21 08:10:00;;;;;;;;;20.00;19.00;;;;;38.06;21.74;101371.44;6191247;22;45406;-63
2023/05/21 08:12:25;;;;;;;;;18.33;18.33;;;;;38.58;20.17;101366.88;6217217;22;45496;-63
2023/05/21 08:14:51;;;;;;;;;19.00;18.67;;;;;39.15;20.20;101377.00;6216576;22;67261;-63
2023/05/21 08:17:16;;;;;;;;;16.00;16.00;;;;;39.70;19.52;101355.81;6189588;22;59772;-63
2023/05/21 08:19:42;;;;;;;;;18.33;16.33;;;;;40.00;18.39;101356.41;6190224;22;45308;-63
2023/05/21 08:22:07;;;;;;;;;16.33;15.67;;;;;40.07;18.30;101359.84;6217895;22;45121;-63
2023/05/21 08:24:32;;;;;;;;;20.33;17.33;;;;;40.03;18.65;101358.69;6189443;22;70131;-63
2023/05/21 08:26:58;;;;;;;;;14.33;14.33;;;;;40.14;19.39;101365.25;6217579;22;45547;-63
2023/05/21 08:29:23;;;;;;;;;14.00;12.00;;;;;39.70;18.20;101363.34;6218016;22;45229;-63
2023/05/21 08:31:48;;;;;;;;;16.67;16.00;;;;;39.48;18.83;101364.13;6215723;22;73259;-63
2023/05/21 08:34:14;;;;;;;;;12.33;11.33;;;;;39.51;18.64;101354.44;6216883;22;61064;-63
2023/05/21 08:36:42;;;;;;;;;13.33;13.33;;;;;39.60;17.88;101350.09;6216757;22;57800;-63
2023/05/21 08:39:07;;;;;;;;;10.25;10.25;;;;;40.59;16.45;101349.28;6217444;22;45324;-63
2023/05/21 08:41:34;;;;;;;;;13.67;12.67;;;;;41.79;16.46;101341.34;6217220;22;45511;-63
2023/05/21 08:44:01;;;;;;;;;11.67;11.33;;;;;42.86;17.12;101339.00;6217413;22;45377;-63
2023/05/21 08:46:31;;;;;;;;;10.00;9.00;;;;;43.46;14.41;101351.16;6217756;22;45375;-63
2023/05/21 08:48:57;;;;;;;;;12.33;11.33;;;;;42.55;15.35;101351.00;6217878;22;45313;-63
2023/05/21 08:51:23;;;;;;;;;15.33;11.33;;;;;42.36;14.77;101353.53;6217105;22;45347;-63
2023/05/21 08:53:49;;;;;;;;;14.33;14.33;;;;;43.02;15.35;101345.41;6216353;22;72391;-63
2023/05/21 08:56:16;;;;;;;;;12.00;12.00;;;;;43.74;14.92;101346.03;6217566;22;45312;-64
2023/05/21 08:58:45;;;;;;;;;10.33;9.33;;;;;44.38;13.86;101356.59;6215915;22;45130;-63
2023/05/21 09:01:11;;;;;;;;;9.75;9.75;;;;;44.88;12.94;101348.03;6190023;22;45891;-64
2023/05/21 09:03:39;;;;;;;;;13.00;13.00;;;;;45.17;12.58;101359.25;6216933;22;45352;-63
2023/05/21 09:06:05;;;;;;;;;13.50;12.25;;;;;45.28;12.54;101359.13;6217174;22;45752;-63
2023/05/21 09:08:34;;;;;;;;;10.00;10.00;;;;;45.99;13.41;101348.97;6190748;22;45348;-64
2023/05/21 09:11:00;;;;;;;;;11.75;10.50;;;;;46.52;12.66;101349.81;6190129;22;45997;-64
2023/05/21 09:13:26;;;;;;;;;13.00;13.00;;;;;47.52;11.72;101345.69;6215559;22;45366;-64
2023/05/21 09:15:51;;;;;;;;;13.00;12.50;;;;;47.81;11.92;101345.38;6217501;22;45451;-64
2023/05/21 09:18:16;;;;;;;;;13.25;13.25;;;;;47.57;11.43;101350.41;6216650;22;56658;-64
2023/05/21 09:20:42;;;;;;;;;12.25;12.00;;;;;47.38;12.43;101342.88;6188721;22;70172;-64
2023/05/21 09:23:15;;;;;;;;;11.50;11.50;;;;;47.35;11.60;101340.69;6190830;22;45292;-64
2023/05/21 09:25:40;;;;;;;;;13.00;13.00;;;;;47.42;12.04;101341.16;6192236;22;45370;-64
2023/05/21 09:28:13;;;;;;;;;12.67;12.67;;;;;47.81;11.12;101334.09;6190654;22;45280;-64
2023/05/21 09:30:48;;;;;;;;;11.75;11.00;;;;;46.99;11.56;101353.50;6190270;22;45450;-64
2023/05/21 09:33:25;;;;;;;;;12.00;11.00;;;;;46.61;11.77;101335.88;6189964;22;45391;-64
2023/05/21 09:35:50;;;;;;;;;15.33;12.00;;;;;47.18;12.05;101335.69;6190213;22;45439;-64
2023/05/21 09:38:16;;;;;;;;;12.00;12.00;;;;;47.68;11.65;101340.56;6165329;22;45432;-65
2023/05/21 09:40:47;;;;;;;;;12.00;12.00;;;;;47.70;11.43;101341.91;6190565;22;45359;-64
2023/05/21 09:43:14;;;;;;;;;16.33;15.33;;;;;46.86;11.60;101346.69;6189845;22;45368;-64
2023/05/21 09:45:52;;;;;;;;;14.00;13.00;;;;;45.71;12.31;101347.94;6189997;22;45326;-65
2023/05/21 09:48:33;;;;;;;;;13.00;13.00;;;;;45.40;12.30;101348.31;6190316;22;45417;-64
2023/05/21 09:51:11;;;;;;;;;16.00;16.00;;;;;44.69;13.07;101347.91;6164843;22;47146;-64
2023/05/21 09:53:47;;;;;;;;;15.33;12.67;;;;;43.62;13.38;101346.34;6217153;22;45304;-64
2023/05/21 09:56:12;;;;;;;;;18.00;17.00;;;;;42.58;13.81;101341.22;6217436;22;45303;-64
2023/05/21 09:58:38;;;;;;;;;19.33;17.67;;;;;42.85;13.43;101337.34;6190480;22;45511;-64
2023/05/21 10:01:05;;;;;;;;;15.33;15.33;;;;;44.22;13.95;101330.63;6190092;22;46177;-64
2023/05/21 10:03:30;;;;;;;;;15.67;15.00;;;;;45.87;13.21;101323.28;6190275;22;45245;-64
2023/05/21 10:05:57;;;;;;;;;11.33;11.33;;;;;46.69;11.13;101321.13;6164886;22;45319;-64
2023/05/21 10:08:25;;;;;;;;;17.67;16.33;;;;;46.47;12.43;101324.59;6189828;22;62331;-64
2023/05/21 10:10:50;;;;;;;;;18.00;18.00;;;;;46.15;11.70;101334.69;6190180;22;45389;-64
2023/05/21 10:13:20;;;;;;;;;16.33;13.67;;;;;45.63;12.51;101321.34;6215934;22;68090;-64
2023/05/21 10:15:59;;;;;;;;;18.00;16.33;;;;;44.06;12.84;101321.50;6190510;22;45292;-64
2023/05/21 10:18:24;;;;;;;;;17.33;17.33;;;;;42.97;14.01;101326.66;6190221;22;45363;-64
2023/05/21 10:20:51;;;;;;;;;17.67;17.67;;;;;43.82;13.65;101308.19;6215943;22;68990;-64
2023/05/21 10:23:17;;;;;;;;;15.00;15.00;;;;;44.90;13.46;101318.56;6190170;22;45347;-64
2023/05/21 10:25:43;;;;;;;;;14.67;14.67;;;;;45.36;13.25;101319.16;6165155;22;45402;-64
2023/05/21 10:28:08;;;;;;;;;14.33;14.33;;;;;44.67;12.94;101322.97;6190595;22;45336;-64
2023/05/21 10:30:35;;;;;;;;;17.00;15.67;;;;;44.44;13.04;101318.97;6188820;22;71561;-65
2023/05/21 10:33:00;;;;;;;;;19.00;19.00;;;;;44.40;12.73;101320.72;6189883;22;45316;-64
2023/05/21 10:35:26;;;;;;;;;21.00;19.67;;;;;44.04;13.32;101315.34;6216129;22;59759;-64
2023/05/21 10:37:52;;;;;;;;;17.00;16.33;;;;;44.35;12.68;101320.75;6217363;22;45307;-64
2023/05/21 10:40:17;;;;;;;;;18.33;18.00;;;;;44.34;13.25;101317.09;6189775;22;45391;-64
2023/05/21 10:43:01;;;;;;;;;16.00;15.00;;;;;44.05;13.46;101300.22;6188676;22;70409;-64
2023/05/21 10:45:41;;;;;;;;;18.67;17.67;;;;;43.88;13.66;101304.22;6217210;22;45316;-64
2023/05/21 10:48:22;;;;;;;;;15.33;15.00;;;;;42.60;13.86;101311.88;6216841;22;45322;-64
2023/05/21 10:51:17;;;;;;;;;18.33;16.67;;;;;39.60;16.34;101307.53;6216592;22;46013;-65
2023/05/21 10:53:54;;;;;;;;;16.33;16.33;;;;;38.49;16.73;101302.56;6190256;22;45613;-64
2023/05/21 10:56:24;;;;;;;;;20.00;18.33;;;;;37.78;17.78;101305.63;6217251;22;45458;-64
2023/05/21 10:59:20;;;;;;;;;18.33;17.67;;;;;37.57;18.23;101298.84;6216695;22;45415;-64
2023/05/21 11:01:49;;;;;;;;;17.33;17.00;;;;;38.41;17.79;101300.19;6216408;22;45985;-64
2023/05/21 11:04:16;;;;;;;;;21.00;21.00;;;;;39.64;17.61;101298.41;6216844;22;45379;-64
2023/05/21 11:06:47;;;;;;;;;16.33;16.33;;;;;40.47;16.50;101293.66;6190161;22;45240;-64